Time;durP1;ratioP1;P1;durP2;ratioP2;P2;SDS_P1;SDS_P2;PMS_P1;PMS_P2;Temp;Humidity;BMP_temperature;BMP_pressure;BME280_temperature;BME280_humidity;BME280_pressure;Samples;Min_cycle;Max_cycle;Signal;HPM_P1;HPM_P2
2022/01/02 00:01:30;;;;;;;24.95;13.70;;;;;;;2.48;100.00;96485.75;5073944;28;25008;-72
2022/01/02 00:04:03;;;;;;;31.90;9.30;;;;;;;2.69;100.00;96475.09;5069180;28;24462;-72
2022/01/02 00:06:32;;;;;;;30.25;9.30;;;;;;;2.41;100.00;96469.66;5073608;28;24537;-72
2022/01/02 00:09:04;;;;;;;27.70;8.25;;;;;;;2.08;100.00;96466.91;5073821;28;24508;-72
2022/01/02 00:11:31;;;;;;;10.60;6.60;;;;;;;2.09;100.00;96463.47;5074035;28;24439;-73
2022/01/02 00:14:06;;;;;;;16.48;8.73;;;;;;;2.27;100.00;96466.56;5073769;28;24435;-73
2022/01/02 00:16:35;;;;;;;14.45;10.05;;;;;;;2.25;100.00;96466.56;5073776;28;24441;-73
2022/01/02 00:19:07;;;;;;;17.58;10.35;;;;;;;2.28;100.00;96469.09;5073667;28;25103;-73
2022/01/02 00:21:40;;;;;;;15.52;10.15;;;;;;;2.12;100.00;96470.25;5073350;28;24466;-72
2022/01/02 00:24:12;;;;;;;107.70;6.35;;;;;;;1.91;100.00;96471.47;5073812;28;24496;-73
2022/01/02 00:26:42;;;;;;;43.42;4.20;;;;;;;1.96;100.00;96467.09;5073376;28;24533;-73
2022/01/02 00:29:08;;;;;;;33.17;4.13;;;;;;;2.15;100.00;96465.06;5073558;28;24508;-73
2022/01/02 00:31:37;;;;;;;19.40;10.65;;;;;;;2.23;100.00;96463.22;5073158;28;24439;-73
2022/01/02 00:34:05;;;;;;;61.37;6.43;;;;;;;2.00;100.00;96460.22;5073234;28;24438;-72
2022/01/02 00:36:31;;;;;;;25.42;8.43;;;;;;;2.08;100.00;96454.13;5073369;28;24434;-72
2022/01/02 00:38:58;;;;;;;46.67;6.18;;;;;;;2.13;100.00;96447.22;5073444;28;24442;-72
2022/01/02 00:41:27;;;;;;;44.88;7.70;;;;;;;2.23;100.00;96453.00;5073289;28;24435;-72
2022/01/02 00:43:59;;;;;;;37.50;7.10;;;;;;;2.22;100.00;96450.47;5072906;28;24466;-72
2022/01/02 00:46:27;;;;;;;38.08;8.00;;;;;;;2.22;100.00;96442.78;5072782;28;25019;-72
2022/01/02 00:49:00;;;;;;;20.05;7.68;;;;;;;2.31;100.00;96442.63;5073268;28;24435;-72
2022/01/02 00:51:32;;;;;;;13.20;7.30;;;;;;;2.23;100.00;96439.38;5073092;28;24443;-72
2022/01/02 00:54:00;;;;;;;25.13;4.18;;;;;;;2.20;100.00;96442.00;5073200;28;24526;-72
2022/01/02 00:56:29;;;;;;;39.17;3.45;;;;;;;2.10;100.00;96447.25;5072784;28;24438;-72
2022/01/02 00:59:00;;;;;;;24.90;2.92;;;;;;;2.12;100.00;96437.03;5072783;28;24435;-72
2022/01/02 01:01:30;;;;;;;7.75;2.20;;;;;;;2.25;100.00;96435.91;5072857;28;24562;-73
2022/01/02 01:03:59;;;;;;;22.25;4.55;;;;;;;2.33;100.00;96431.47;5072671;28;24820;-72
2022/01/02 01:06:32;;;;;;;21.48;7.13;;;;;;;2.36;100.00;96430.59;5072683;28;24851;-72
2022/01/02 01:09:04;;;;;;;14.43;6.07;;;;;;;2.28;100.00;96432.47;5071341;28;24466;-73
2022/01/02 01:11:31;;;;;;;22.50;11.02;;;;;;;2.35;100.00;96421.25;5072760;28;24442;-72
2022/01/02 01:13:59;;;;;;;14.40;8.95;;;;;;;2.33;100.00;96416.16;5072720;28;24529;-73
2022/01/02 01:16:27;;;;;;;14.70;9.70;;;;;;;2.27;100.00;96421.41;5085251;28;24517;-72
2022/01/02 01:18:53;;;;;;;12.57;9.43;;;;;;;2.01;100.00;96419.34;5093259;28;24418;-72
2022/01/02 01:21:21;;;;;;;34.40;8.43;;;;;;;1.72;100.00;96422.44;5078251;28;24878;-72
2022/01/02 01:23:48;;;;;;;38.75;5.45;;;;;;;1.59;100.00;96421.78;5071933;28;24465;-72
2022/01/02 01:26:16;;;;;;;14.73;4.70;;;;;;;1.72;100.00;96424.16;5072453;28;24461;-72
2022/01/02 01:28:43;;;;;;;23.52;5.00;;;;;;;1.88;100.00;96415.31;5072407;28;24442;-72
2022/01/02 01:31:09;;;;;;;18.73;9.27;;;;;;;1.95;100.00;96409.22;5072219;28;24449;-72
2022/01/02 01:33:36;;;;;;;16.30;9.40;;;;;;;1.98;100.00;96405.78;5072441;28;24843;-72
2022/01/02 01:36:02;;;;;;;15.27;9.48;;;;;;;1.78;100.00;96399.34;5071889;28;24508;-72
2022/01/02 01:38:30;;;;;;;18.50;9.25;;;;;;;1.76;100.00;96400.22;5072331;28;24431;-72
2022/01/02 01:41:01;;;;;;;19.05;7.03;;;;;;;1.83;100.00;96412.03;5072538;28;24796;-72
2022/01/02 01:43:37;;;;;;;24.20;5.78;;;;;;;1.53;100.00;96404.03;5072181;28;24462;-72
2022/01/02 01:46:04;;;;;;;41.90;4.30;;;;;;;1.37;100.00;96408.56;5071610;28;24439;-72
2022/01/02 01:48:30;;;;;;;11.47;4.13;;;;;;;1.50;100.00;96408.34;5072204;28;24469;-72
2022/01/02 01:50:57;;;;;;;16.63;4.75;;;;;;;1.63;100.00;96413.22;5071938;28;24438;-72
2022/01/02 01:53:23;;;;;;;7.28;4.55;;;;;;;1.65;100.00;96415.75;5071940;28;24488;-72
2022/01/02 01:55:51;;;;;;;14.95;6.82;;;;;;;1.72;100.00;96407.09;5071680;28;24442;-72
2022/01/02 01:58:18;;;;;;;10.60;6.43;;;;;;;1.64;100.00;96404.69;5055901;28;24829;-72
2022/01/02 02:00:44;;;;;;;11.85;6.18;;;;;;;1.70;100.00;96404.56;5071785;28;24998;-72
2022/01/02 02:03:11;;;;;;;32.08;6.82;;;;;;;1.62;100.00;96403.84;5071484;28;25030;-72
2022/01/02 02:05:37;;;;;;;69.03;5.57;;;;;;;1.31;100.00;96406.09;5071594;28;24984;-72
2022/01/02 02:08:04;;;;;;;35.05;5.10;;;;;;;1.31;100.00;96393.34;5071665;28;24488;-72
2022/01/02 02:10:35;;;;;;;7.63;3.85;;;;;;;1.49;100.00;96401.56;5071599;28;24435;-72
2022/01/02 02:13:05;;;;;;;14.23;7.60;;;;;;;1.49;100.00;96392.19;5071782;28;24484;-72
2022/01/02 02:15:32;;;;;;;13.85;6.78;;;;;;;1.54;100.00;96392.94;5071166;28;24431;-72
2022/01/02 02:17:59;;;;;;;19.05;6.70;;;;;;;1.44;100.00;96384.59;5071497;28;24434;-72
2022/01/02 02:20:29;;;;;;;11.18;5.00;;;;;;;1.40;100.00;96382.13;5070626;28;24792;-72
2022/01/02 02:22:57;;;;;;;6.13;4.90;;;;;;;1.23;100.00;96376.47;5071373;28;24529;-73
2022/01/02 02:25:26;;;;;;;7.05;4.88;;;;;;;1.35;100.00;96366.91;5071081;28;24454;-72
2022/01/02 02:27:54;;;;;;;6.00;4.63;;;;;;;1.42;100.00;96363.38;5071445;28;24430;-72
2022/01/02 02:30:21;;;;;;;14.73;4.70;;;;;;;1.26;100.00;96361.09;5071210;28;24999;-72
2022/01/02 02:32:48;;;;;;;9.18;4.15;;;;;;;1.21;100.00;96351.81;5071101;28;24442;-72
2022/01/02 02:35:15;;;;;;;16.52;3.85;;;;;;;1.21;100.00;96362.03;5071205;28;24438;-72
2022/01/02 02:37:44;;;;;;;12.98;3.45;;;;;;;1.19;100.00;96357.84;5070783;28;24442;-72
2022/01/02 02:40:11;;;;;;;9.70;3.33;;;;;;;1.21;100.00;96351.81;5070868;28;24995;-72
2022/01/02 02:42:45;;;;;;;7.32;3.40;;;;;;;1.34;100.00;96339.72;5071094;28;24438;-73
2022/01/02 02:50:46;;;;;;;4.43;4.03;;;;;;;1.24;100.00;96325.41;5070913;28;24460;-72
2022/01/02 02:53:14;;;;;;;10.90;3.83;;;;;;;1.29;100.00;96320.22;5070709;28;24526;-72
2022/01/02 02:55:44;;;;;;;7.80;3.45;;;;;;;1.31;100.00;96321.06;5070263;28;24442;-73
2022/01/02 02:58:38;;;;;;;7.35;3.80;;;;;;;1.34;100.00;96323.56;5070635;28;25013;-72
2022/01/02 03:00:58;;;;;;;6.35;2.45;;;;;;;1.41;100.00;96320.88;5070111;28;24453;-72
2022/01/02 03:03:24;;;;;;;3.38;2.83;;;;;;;1.49;100.00;96322.44;5070793;28;24450;-72
2022/01/02 03:05:51;;;;;;;4.40;2.47;;;;;;;1.62;100.00;96321.31;5070214;28;25325;-72
2022/01/02 03:08:19;;;;;;;24.48;2.40;;;;;;;1.64;100.00;96320.44;5070443;28;24847;-72
2022/01/02 03:10:46;;;;;;;1.27;1.17;;;;;;;1.64;100.00;96322.97;5070628;28;24434;-72
2022/01/02 03:13:12;;;;;;;2.20;1.50;;;;;;;1.77;100.00;96318.47;5070390;28;24445;-72
2022/01/02 03:15:39;;;;;;;18.40;2.92;;;;;;;1.90;100.00;96314.81;5070418;28;24499;-72
2022/01/02 03:18:06;;;;;;;11.65;3.13;;;;;;;1.81;100.00;96312.44;5070536;28;25010;-72
2022/01/02 03:20:33;;;;;;;12.80;4.88;;;;;;;1.69;100.00;96313.50;5070108;28;24999;-72
2022/01/02 03:22:59;;;;;;;10.07;5.55;;;;;;;1.69;100.00;96312.69;5070441;28;24443;-72
2022/01/02 03:25:27;;;;;;;8.65;5.68;;;;;;;1.52;100.00;96309.59;5070119;28;25050;-72
2022/01/02 03:27:53;;;;;;;14.65;4.95;;;;;;;1.49;100.00;96307.97;5069970;28;25002;-73
2022/01/02 03:30:20;;;;;;;5.85;3.30;;;;;;;1.64;100.00;96304.28;5069720;28;24800;-73
2022/01/02 03:32:46;;;;;;;7.20;4.90;;;;;;;1.57;100.00;96302.72;5069722;28;24443;-72
2022/01/02 03:35:13;;;;;;;7.82;4.43;;;;;;;1.48;100.00;96301.16;5070187;28;24480;-72
2022/01/02 03:37:39;;;;;;;9.25;4.20;;;;;;;1.34;100.00;96296.31;5070155;28;24442;-72
2022/01/02 03:40:08;;;;;;;5.53;4.25;;;;;;;1.24;100.00;96288.84;5069977;28;24442;-72
2022/01/02 03:42:36;;;;;;;5.00;3.47;;;;;;;1.24;100.00;96283.75;5069825;28;24442;-73
2022/01/02 03:45:04;;;;;;;34.50;3.15;;;;;;;1.15;100.00;96288.16;5070213;28;24453;-73
2022/01/02 03:47:31;;;;;;;7.18;3.42;;;;;;;1.28;100.00;96275.16;5070010;28;24431;-73
2022/01/02 03:49:58;;;;;;;20.27;3.25;;;;;;;1.33;100.00;96278.47;5069893;28;24987;-73
2022/01/02 03:52:24;;;;;;;11.25;2.67;;;;;;;1.34;100.00;96267.41;5070227;28;24849;-73
2022/01/02 03:54:52;;;;;;;17.17;6.55;;;;;;;1.31;100.00;96262.34;5070067;28;24493;-73
2022/01/02 03:57:19;;;;;;;8.45;5.75;;;;;;;1.23;100.00;96265.06;5064343;28;24453;-72
2022/01/02 03:59:47;;;;;;;11.15;5.18;;;;;;;1.11;100.00;96266.13;5071522;28;24496;-72
2022/01/02 04:02:13;;;;;;;10.45;4.40;;;;;;;1.11;100.00;96263.56;5069709;28;24449;-72
2022/01/02 04:04:40;;;;;;;18.42;3.80;;;;;;;1.18;100.00;96262.56;5070193;28;24808;-73
2022/01/02 04:07:06;;;;;;;14.65;3.50;;;;;;;1.25;100.00;96270.97;5069875;28;24439;-72
2022/01/02 04:09:33;;;;;;;6.82;4.15;;;;;;;1.36;100.00;96263.94;5070083;28;24433;-72
2022/01/02 04:12:00;;;;;;;11.35;4.72;;;;;;;1.31;100.00;96268.31;5069616;28;24438;-73
2022/01/02 04:14:26;;;;;;;19.50;5.37;;;;;;;1.39;100.00;96263.88;5059044;28;24435;-73
2022/01/02 04:16:54;;;;;;;10.82;4.57;;;;;;;1.38;100.00;96257.09;5069704;28;24987;-73
2022/01/02 04:19:20;;;;;;;45.03;5.38;;;;;;;1.45;100.00;96251.03;5069938;28;24434;-73
2022/01/02 04:21:47;;;;;;;6.22;4.43;;;;;;;1.36;100.00;96247.78;5069307;28;24469;-73
2022/01/02 04:24:13;;;;;;;50.67;3.90;;;;;;;1.36;100.00;96240.13;5069779;28;25053;-73
2022/01/02 04:26:40;;;;;;;10.93;2.75;;;;;;;1.34;100.00;96244.44;5069600;28;24439;-73
2022/01/02 04:29:06;;;;;;;5.32;2.50;;;;;;;1.34;100.00;96231.69;5069741;28;24438;-73
2022/01/02 04:31:33;;;;;;;40.88;2.60;;;;;;;1.45;100.00;96227.22;5069561;28;24940;-72
2022/01/02 04:34:01;;;;;;;23.80;4.03;;;;;;;1.45;100.00;96235.72;5069690;28;24453;-72
2022/01/02 04:36:27;;;;;;;16.40;6.30;;;;;;;1.43;100.00;96234.03;5069604;28;24488;-73
2022/01/02 04:38:53;;;;;;;7.40;4.68;;;;;;;1.33;100.00;96232.53;5069674;28;24992;-73
2022/01/02 04:41:20;;;;;;;8.90;3.90;;;;;;;1.28;100.00;96232.63;5069626;28;24517;-73
2022/01/02 04:43:46;;;;;;;18.93;2.07;;;;;;;1.24;100.00;96227.63;5072534;28;24461;-73
2022/01/02 04:46:14;;;;;;;2.33;1.58;;;;;;;1.34;100.00;96236.78;5073566;28;24504;-73
2022/01/02 04:48:41;;;;;;;3.22;2.38;;;;;;;1.42;100.00;96217.91;5073688;28;24438;-72
2022/01/02 04:51:09;;;;;;;7.83;1.83;;;;;;;1.43;100.00;96224.66;5073294;28;24864;-72
2022/01/02 04:53:37;;;;;;;4.45;1.55;;;;;;;1.41;100.00;96225.59;5072876;28;24493;-73
2022/01/02 04:56:03;;;;;;;1.90;1.70;;;;;;;1.54;100.00;96228.72;5072910;28;24446;-73
2022/01/02 04:58:30;;;;;;;2.85;2.42;;;;;;;1.59;100.00;96221.81;5072772;28;24480;-73
2022/01/02 05:00:56;;;;;;;5.32;3.30;;;;;;;1.69;100.00;96220.75;5072934;28;24488;-73
2022/01/02 05:03:23;;;;;;;5.57;4.22;;;;;;;1.69;100.00;96221.59;5072830;28;24442;-73
2022/01/02 05:05:49;;;;;;;8.30;4.97;;;;;;;1.54;100.00;96221.91;5072740;28;24447;-73
2022/01/02 05:08:17;;;;;;;5.65;4.68;;;;;;;1.54;100.00;96216.81;5072931;28;24438;-73
2022/01/02 05:10:43;;;;;;;4.68;3.45;;;;;;;1.59;100.00;96209.03;5072763;28;24879;-73
2022/01/02 05:13:10;;;;;;;4.65;3.42;;;;;;;1.74;100.00;96202.78;5072245;28;24442;-73
2022/01/02 05:15:36;;;;;;;5.03;3.50;;;;;;;1.68;100.00;96213.97;5072414;28;24855;-73
2022/01/02 05:18:03;;;;;;;8.30;3.40;;;;;;;1.63;100.00;96211.53;5072652;28;24975;-73
2022/01/02 05:20:29;;;;;;;3.80;3.38;;;;;;;1.65;100.00;96202.09;5072705;28;24508;-73
2022/01/02 05:22:56;;;;;;;4.80;2.87;;;;;;;1.61;100.00;96197.94;5072387;28;24438;-73
2022/01/02 05:25:24;;;;;;;4.57;4.13;;;;;;;1.71;100.00;96193.50;5090651;28;24598;-72
2022/01/02 05:27:50;;;;;;;5.43;4.00;;;;;;;1.69;100.00;96197.78;5089901;28;24826;-73
2022/01/02 05:30:16;;;;;;;6.22;3.78;;;;;;;1.65;100.00;96193.59;5072316;28;24983;-73
2022/01/02 05:32:43;;;;;;;4.28;3.22;;;;;;;1.60;100.00;96191.16;5072178;28;24434;-73
2022/01/02 05:35:09;;;;;;;5.55;3.40;;;;;;;1.69;100.00;96178.19;5072393;28;24426;-73
2022/01/02 05:37:36;;;;;;;4.18;3.45;;;;;;;1.74;100.00;96177.25;5072097;28;25065;-73
2022/01/02 05:40:03;;;;;;;3.40;3.08;;;;;;;1.67;100.00;96177.38;5072174;28;24438;-72
2022/01/02 05:42:31;;;;;;;4.10;3.13;;;;;;;1.78;100.00;96181.41;5072151;28;24447;-72
2022/01/02 05:44:58;;;;;;;3.90;3.50;;;;;;;1.76;100.00;96178.06;5072065;28;24496;-72
2022/01/02 05:47:24;;;;;;;3.28;2.97;;;;;;;1.69;100.00;96172.25;5071895;28;25220;-72
2022/01/02 05:49:50;;;;;;;3.25;2.95;;;;;;;1.75;100.00;96177.22;5072253;28;24781;-72
2022/01/02 05:52:17;;;;;;;5.60;3.55;;;;;;;1.86;100.00;96179.56;5071446;28;25007;-72
2022/01/02 05:54:43;;;;;;;4.65;3.40;;;;;;;1.91;100.00;96176.00;5071369;28;24445;-73
2022/01/02 05:57:10;;;;;;;5.78;2.83;;;;;;;1.93;100.00;96176.81;5071693;28;24493;-73
2022/01/02 05:59:39;;;;;;;7.20;3.80;;;;;;;1.94;100.00;96180.22;5072075;28;24501;-73
2022/01/02 06:02:06;;;;;;;4.63;3.70;;;;;;;1.91;100.00;96176.00;5071738;28;24449;-74
2022/01/02 06:04:32;;;;;;;4.35;3.50;;;;;;;1.80;100.00;96179.69;5071784;28;24450;-73
2022/01/02 06:06:59;;;;;;;4.27;3.33;;;;;;;1.72;100.00;96174.72;5070701;28;24732;-73
2022/01/02 06:09:25;;;;;;;4.35;2.60;;;;;;;1.76;100.00;96167.84;5071519;28;24438;-73
2022/01/02 06:11:51;;;;;;;3.45;2.92;;;;;;;2.15;100.00;96164.41;5071943;28;24434;-73
2022/01/02 06:14:18;;;;;;;4.13;3.10;;;;;;;2.14;100.00;96156.75;5071768;28;24840;-73
2022/01/02 06:16:46;;;;;;;3.47;3.17;;;;;;;1.90;100.00;96155.63;5070979;28;24438;-73
2022/01/02 06:19:12;;;;;;;6.22;3.00;;;;;;;1.63;100.00;96152.81;5071543;28;24431;-73
2022/01/02 06:21:39;;;;;;;4.43;3.25;;;;;;;1.61;100.00;96153.69;5071087;28;25035;-72
2022/01/02 06:24:05;;;;;;;4.72;3.50;;;;;;;1.53;100.00;96158.97;5071196;28;24445;-72
2022/01/02 06:26:32;;;;;;;6.22;3.50;;;;;;;1.56;100.00;96163.16;5071176;28;24438;-72
2022/01/02 06:29:02;;;;;;;3.13;2.83;;;;;;;1.56;100.00;96166.56;5071077;28;24438;-72
2022/01/02 06:31:29;;;;;;;3.90;2.92;;;;;;;1.66;100.00;96172.31;5071517;28;24805;-72
2022/01/02 06:33:57;;;;;;;4.60;2.83;;;;;;;1.74;100.00;96178.06;5071068;28;24446;-72
2022/01/02 06:36:24;;;;;;;3.33;2.95;;;;;;;1.84;100.00;96183.84;5070852;28;24438;-73
2022/01/02 06:38:50;;;;;;;3.75;2.92;;;;;;;1.92;100.00;96174.28;5071053;28;24442;-72
2022/01/02 06:41:17;;;;;;;4.70;3.70;;;;;;;1.92;100.00;96167.47;5071010;28;24972;-72
2022/01/02 06:43:43;;;;;;;3.50;3.20;;;;;;;2.03;100.00;96149.34;5071117;28;24535;-72
2022/01/02 06:46:10;;;;;;;3.75;2.95;;;;;;;2.08;100.00;96150.09;5070497;28;24454;-73
2022/01/02 06:48:37;;;;;;;4.03;3.20;;;;;;;2.00;100.00;96141.72;5070687;28;24438;-72
2022/01/02 06:51:05;;;;;;;3.30;2.95;;;;;;;1.95;100.00;96146.13;5070817;28;24847;-72
2022/01/02 06:53:31;;;;;;;3.25;2.72;;;;;;;1.84;100.00;96151.47;5070682;28;24553;-72
2022/01/02 06:55:58;;;;;;;4.70;2.83;;;;;;;1.86;100.00;96143.78;5070726;28;24427;-71
2022/01/02 06:58:24;;;;;;;3.15;2.75;;;;;;;1.93;100.00;96148.72;5070846;28;24442;-71
2022/01/02 07:00:51;;;;;;;3.77;2.77;;;;;;;1.97;100.00;96144.38;5070765;28;24789;-71
2022/01/02 07:03:17;;;;;;;3.63;2.83;;;;;;;1.90;100.00;96145.41;5070310;28;24464;-72
2022/01/02 07:05:43;;;;;;;2.30;2.00;;;;;;;1.81;100.00;96145.59;5070167;28;24458;-71
2022/01/02 07:08:12;;;;;;;2.63;2.20;;;;;;;1.85;100.00;96137.81;5070449;28;24480;-71
2022/01/02 07:10:39;;;;;;;3.33;2.45;;;;;;;1.99;100.00;96131.56;5070467;28;24435;-71
2022/01/02 07:13:05;;;;;;;3.80;2.90;;;;;;;1.96;100.00;96132.47;5070250;28;24445;-71
2022/01/02 07:15:32;;;;;;;4.33;3.23;;;;;;;2.00;100.00;96121.31;5070148;28;24535;-76
2022/01/02 07:17:58;;;;;;;4.70;3.17;;;;;;;1.98;100.00;96123.06;5070296;28;24434;-72
2022/01/02 07:20:25;;;;;;;3.13;2.80;;;;;;;1.97;100.00;96123.13;5070645;28;24430;-73
2022/01/02 07:22:51;;;;;;;3.92;2.88;;;;;;;2.08;100.00;96124.53;5070062;28;24465;-72
2022/01/02 07:25:19;;;;;;;4.68;3.10;;;;;;;2.08;100.00;96127.09;5070212;28;24501;-72
2022/01/02 07:27:45;;;;;;;3.25;2.85;;;;;;;2.09;100.00;96127.94;5070205;28;24488;-71
2022/01/02 07:30:12;;;;;;;2.40;2.00;;;;;;;2.08;100.00;96121.97;5070257;28;24438;-72
2022/01/02 07:32:39;;;;;;;2.10;1.52;;;;;;;2.04;100.00;96129.72;5070196;28;24445;-72
2022/01/02 07:35:06;;;;;;;4.70;2.40;;;;;;;2.16;100.00;96137.13;5070110;28;24995;-72
2022/01/02 07:37:33;;;;;;;13.77;5.78;;;;;;;2.15;100.00;96136.28;5057482;28;25014;-72
2022/01/02 07:40:00;;;;;;;2.53;2.33;;;;;;;2.08;100.00;96132.19;5070094;28;24426;-72
2022/01/02 07:42:28;;;;;;;2.45;1.77;;;;;;;2.09;100.00;96136.44;5070094;28;24800;-72
2022/01/02 07:44:54;;;;;;;3.85;2.35;;;;;;;2.23;100.00;96125.06;5069917;28;25031;-72
2022/01/02 07:47:20;;;;;;;2.78;2.38;;;;;;;2.28;100.00;96134.25;5069543;28;25011;-72
2022/01/02 07:49:47;;;;;;;3.58;2.58;;;;;;;2.21;100.00;96129.34;5070345;28;24434;-73
2022/01/02 07:52:13;;;;;;;7.10;2.83;;;;;;;2.38;100.00;96124.66;5069980;28;24439;-73
2022/01/02 07:54:40;;;;;;;5.05;2.20;;;;;;;2.52;100.00;96122.59;5070061;28;24520;-73
2022/01/02 07:57:06;;;;;;;3.70;2.17;;;;;;;2.51;100.00;96122.63;5069381;28;24438;-72
2022/01/02 07:59:34;;;;;;;3.20;2.35;;;;;;;2.49;100.00;96122.69;5085769;28;24422;-73
2022/01/02 08:02:01;;;;;;;4.10;2.75;;;;;;;2.58;100.00;96114.75;5072369;28;24450;-73
2022/01/02 08:04:27;;;;;;;3.58;2.92;;;;;;;2.57;100.00;96105.41;5078760;28;24442;-72
2022/01/02 08:06:54;;;;;;;4.67;3.23;;;;;;;2.89;100.00;96111.38;5074667;28;24537;-72
2022/01/02 08:09:20;;;;;;;4.75;2.85;;;;;;;2.64;100.00;96106.09;5069925;28;24446;-73
2022/01/02 08:11:47;;;;;;;3.08;2.78;;;;;;;2.48;100.00;96113.31;5069628;28;24501;-73
2022/01/02 08:14:15;;;;;;;3.90;2.30;;;;;;;2.48;100.00;96118.41;5069906;28;24446;-72
2022/01/02 08:16:43;;;;;;;5.73;3.20;;;;;;;2.45;100.00;96120.22;5069963;28;24540;-73
2022/01/02 08:19:09;;;;;;;8.13;3.28;;;;;;;2.53;100.00;96120.88;5074017;28;24439;-73
2022/01/02 08:21:36;;;;;;;9.32;7.35;;;;;;;2.78;100.00;96109.13;5073633;28;24435;-74
2022/01/02 08:24:03;;;;;;;18.42;14.73;;;;;;;2.95;100.00;96103.53;5064024;28;24461;-72
2022/01/02 08:26:29;;;;;;;14.05;11.00;;;;;;;2.86;100.00;96102.09;5073082;28;24447;-72
2022/01/02 08:28:55;;;;;;;9.10;8.10;;;;;;;2.82;100.00;96100.50;5073474;28;24472;-73
2022/01/02 08:31:22;;;;;;;8.80;7.15;;;;;;;2.82;100.00;96109.91;5073554;28;24430;-73
2022/01/02 08:33:50;;;;;;;7.32;6.63;;;;;;;2.87;100.00;96108.03;5072683;28;24438;-72
2022/01/02 08:36:16;;;;;;;7.32;6.30;;;;;;;2.86;100.00;96098.69;5073091;28;24862;-73
2022/01/02 08:38:44;;;;;;;15.30;11.07;;;;;;;2.91;100.00;96100.22;5073281;28;24441;-73
2022/01/02 08:41:11;;;;;;;13.80;8.95;;;;;;;2.99;100.00;96101.75;5073450;28;24494;-72
2022/01/02 08:43:37;;;;;;;8.40;7.40;;;;;;;3.06;100.00;96103.25;5072946;28;24442;-73
2022/01/02 08:46:04;;;;;;;8.13;6.55;;;;;;;3.13;100.00;96102.19;5070059;28;24450;-74
2022/01/02 08:48:30;;;;;;;6.97;5.32;;;;;;;3.25;100.00;96098.44;5072783;28;24839;-74
2022/01/02 08:50:58;;;;;;;6.53;5.63;;;;;;;3.31;100.00;96105.97;5073094;28;24480;-73
2022/01/02 08:53:24;;;;;;;5.93;4.75;;;;;;;3.38;100.00;96108.28;5072623;28;24442;-74
2022/01/02 08:55:51;;;;;;;4.32;2.97;;;;;;;3.44;100.00;96106.44;5072479;28;24442;-74
2022/01/02 08:58:17;;;;;;;3.05;2.00;;;;;;;3.52;100.00;96096.78;5072646;28;24438;-74
2022/01/02 09:00:44;;;;;;;2.20;1.83;;;;;;;3.55;100.00;96102.66;5072561;28;24491;-74
2022/01/02 09:03:10;;;;;;;2.00;1.70;;;;;;;3.57;100.00;96097.50;5073138;28;24517;-74
2022/01/02 09:05:37;;;;;;;3.75;2.10;;;;;;;3.56;100.00;96100.94;5072343;28;24458;-74
2022/01/02 09:08:05;;;;;;;2.75;1.90;;;;;;;3.62;100.00;96099.03;5072134;28;24431;-74
2022/01/02 09:10:31;;;;;;;2.23;1.70;;;;;;;3.73;100.00;96105.56;5072553;28;25119;-74
2022/01/02 09:12:58;;;;;;;2.33;1.70;;;;;;;3.83;100.00;96096.72;5072511;28;24441;-74
2022/01/02 09:15:25;;;;;;;3.25;1.77;;;;;;;3.77;100.00;96107.13;5071959;28;24461;-74
2022/01/02 09:17:52;;;;;;;2.13;1.73;;;;;;;3.76;100.00;96095.22;5071951;28;24847;-73
2022/01/02 09:20:18;;;;;;;1.50;1.40;;;;;;;3.80;100.00;96099.38;5072580;28;24431;-73
2022/01/02 09:22:46;;;;;;;2.47;2.08;;;;;;;3.83;100.00;96109.53;5072361;28;24438;-73
2022/01/02 09:25:14;;;;;;;4.82;1.85;;;;;;;3.87;100.00;96118.78;5072126;28;24983;-72
2022/01/02 09:27:42;;;;;;;3.10;1.92;;;;;;;3.90;100.00;96107.63;5071838;28;24481;-72
2022/01/02 09:30:09;;;;;;;2.50;1.95;;;;;;;3.97;100.00;96116.75;5063827;28;24427;-73
2022/01/02 09:32:36;;;;;;;2.08;1.85;;;;;;;3.99;100.00;96117.56;5070752;28;24503;-73
2022/01/02 09:35:03;;;;;;;2.38;1.63;;;;;;;4.06;100.00;96117.31;5091126;28;24445;-72
2022/01/02 09:37:29;;;;;;;2.72;1.70;;;;;;;4.11;100.00;96119.72;5071533;28;24493;-72
2022/01/02 09:39:56;;;;;;;1.52;1.35;;;;;;;4.15;100.00;96115.34;5071861;28;24442;-75
2022/01/02 09:42:24;;;;;;;3.00;1.52;;;;;;;4.26;100.00;96118.41;5072428;28;24446;-76
2022/01/02 09:44:50;;;;;;;1.70;1.60;;;;;;;4.35;100.00;96105.31;5071361;28;24442;-73
2022/01/02 09:47:21;;;;;;;30.13;22.02;;;;;;;4.50;100.00;96107.34;5071171;28;24451;-72
2022/01/02 09:49:47;;;;;;;55.47;36.75;;;;;;;4.59;100.00;96101.91;5074463;28;24519;-72
2022/01/02 09:52:14;;;;;;;21.35;15.85;;;;;;;4.68;100.00;96110.19;5071695;28;24450;-73
2022/01/02 09:54:41;;;;;;;4.63;3.30;;;;;;;4.72;100.00;96116.91;5063217;28;24529;-73
2022/01/02 09:57:08;;;;;;;3.83;2.03;;;;;;;4.73;100.00;96106.56;5071137;28;24454;-73
2022/01/02 09:59:36;;;;;;;3.30;2.45;;;;;;;4.73;100.00;96110.88;5071622;28;24442;-73
2022/01/02 10:02:03;;;;;;;2.80;2.28;;;;;;;4.73;100.00;96105.72;5071809;28;24469;-73
2022/01/02 10:04:38;;;;;;;4.17;2.17;;;;;;;4.66;100.00;96117.09;5071774;28;24561;-73
2022/01/02 10:07:06;;;;;;;2.87;1.80;;;;;;;4.71;100.00;96122.88;5064737;28;24455;-72
2022/01/02 10:09:35;;;;;;;2.90;1.80;;;;;;;4.72;100.00;96119.47;5071613;28;24442;-72
2022/01/02 10:12:21;;;;;;;3.88;2.08;;;;;;;4.74;100.00;96109.97;5071497;28;24431;-73
2022/01/02 10:15:12;;;;;;;4.82;2.00;;;;;;;4.72;100.00;96101.50;5068312;28;24466;-73
2022/01/02 10:17:53;;;;;;;3.15;2.58;;;;;;;4.77;100.00;96085.03;5070890;28;24797;-72
2022/01/02 10:20:20;;;;;;;2.90;2.25;;;;;;;4.87;100.00;96100.97;5071032;28;24996;-73
2022/01/02 10:23:05;;;;;;;2.03;1.80;;;;;;;4.95;100.00;96072.47;5068050;28;24444;-73
2022/01/02 10:25:43;;;;;;;3.90;2.10;;;;;;;5.01;100.00;96060.25;5064048;28;24860;-73
2022/01/02 10:28:34;;;;;;;3.13;2.00;;;;;;;5.12;100.00;96064.13;5070780;28;24856;-73
2022/01/02 10:31:06;;;;;;;3.50;2.10;;;;;;;5.18;100.00;96057.03;5049260;28;24434;-73
2022/01/02 10:33:49;;;;;;;2.10;1.75;;;;;;;5.28;100.00;96052.41;5070209;28;24549;-73
2022/01/02 10:36:24;;;;;;;3.00;2.08;;;;;;;5.35;100.00;96043.59;5065052;28;24433;-72
2022/01/02 10:39:08;;;;;;;2.87;2.13;;;;;;;5.38;100.00;96051.19;5068692;28;24441;-72
2022/01/02 10:41:37;;;;;;;2.40;2.00;;;;;;;5.44;100.00;96053.50;5070974;28;24427;-72
2022/01/02 10:44:29;;;;;;;2.80;1.97;;;;;;;5.50;100.00;96066.13;5065071;28;24525;-72
2022/01/02 10:47:17;;;;;;;3.80;2.33;;;;;;;5.64;100.00;96068.19;5069604;28;24516;-72
2022/01/02 10:50:03;;;;;;;3.23;2.10;;;;;;;5.78;100.00;96088.19;5071230;28;24586;-72
2022/01/02 10:52:32;;;;;;;3.35;2.30;;;;;;;5.81;100.00;96100.91;5070306;28;24451;-72
2022/01/02 10:55:00;;;;;;;3.57;2.70;;;;;;;5.86;100.00;96095.59;5070090;28;24486;-71
2022/01/02 10:57:27;;;;;;;3.45;3.00;;;;;;;5.85;100.00;96087.03;5068099;28;25053;-72
2022/01/02 10:59:56;;;;;;;3.30;2.53;;;;;;;5.91;100.00;96079.09;5070267;28;24440;-72
2022/01/02 11:02:26;;;;;;;3.00;2.70;;;;;;;6.00;100.00;96078.75;5070105;28;24438;-75
2022/01/02 11:04:58;;;;;;;6.88;3.10;;;;;;;6.07;100.00;96063.94;5070465;28;24442;-73
2022/01/02 11:07:26;;;;;;;2.83;2.42;;;;;;;6.03;100.00;96068.34;5069508;28;24454;-72
2022/01/02 11:09:54;;;;;;;4.22;2.70;;;;;;;6.03;100.00;96062.38;5069776;28;24438;-72
2022/01/02 11:12:21;;;;;;;2.85;2.55;;;;;;;6.06;100.00;96068.22;5070495;28;24442;-73
2022/01/02 11:14:48;;;;;;;3.00;2.17;;;;;;;6.11;100.00;96067.22;5059116;28;24439;-73
2022/01/02 11:17:15;;;;;;;2.95;2.20;;;;;;;6.11;100.00;96074.94;5069577;28;25018;-72
2022/01/02 11:19:44;;;;;;;2.50;2.08;;;;;;;6.17;100.00;96079.84;5070046;28;24439;-72
2022/01/02 11:22:14;;;;;;;3.45;2.10;;;;;;;6.28;100.00;96082.81;5070419;28;24476;-72
2022/01/02 11:24:51;;;;;;;3.37;2.00;;;;;;;6.39;100.00;96090.09;5069960;28;24434;-72
2022/01/02 11:27:24;;;;;;;6.53;2.40;;;;;;;6.52;100.00;96086.09;5069707;28;24458;-72
2022/01/02 11:29:51;;;;;;;5.03;2.80;;;;;;;6.67;100.00;96092.31;5054384;28;25064;-72
2022/01/02 11:32:25;;;;;;;4.63;3.13;;;;;;;6.72;100.00;96078.38;5065461;28;24439;-72
2022/01/02 11:34:53;;;;;;;4.28;2.90;;;;;;;6.75;100.00;96067.13;5069911;28;24430;-73
2022/01/02 11:37:24;;;;;;;6.93;4.95;;;;;;;6.79;100.00;96081.53;5068905;28;24968;-72
2022/01/02 11:39:56;;;;;;;5.43;3.20;;;;;;;6.91;100.00;96091.28;5070050;28;24437;-73